sensor_id;sensor_type;location;lat;lon;timestamp;P1;durP1;ratioP1;P2;durP2;ratioP2
4636;SDS011;2331;48.806;9.140;2023-07-22T00:00:01;3.55;;;2.00;;
4636;SDS011;2331;48.806;9.140;2023-07-22T00:02:30;3.42;;;1.90;;
4636;SDS011;2331;48.806;9.140;2023-07-22T00:04:57;3.10;;;1.75;;
4636;SDS011;2331;48.806;9.140;2023-07-22T00:07:24;4.75;;;2.45;;
4636;SDS011;2331;48.806;9.140;2023-07-22T00:09:51;3.63;;;1.95;;
4636;SDS011;2331;48.806;9.140;2023-07-22T00:12:19;2.08;;;1.65;;
4636;SDS011;2331;48.806;9.140;2023-07-22T00:14:50;4.20;;;2.20;;
4636;SDS011;2331;48.806;9.140;2023-07-22T00:17:17;2.83;;;2.03;;
4636;SDS011;2331;48.806;9.140;2023-07-22T00:19:45;3.30;;;2.10;;
4636;SDS011;2331;48.806;9.140;2023-07-22T00:22:12;3.53;;;2.45;;
4636;SDS011;2331;48.806;9.140;2023-07-22T00:24:40;3.30;;;2.10;;
4636;SDS011;2331;48.806;9.140;2023-07-22T00:27:06;4.18;;;2.10;;
4636;SDS011;2331;48.806;9.140;2023-07-22T00:29:35;6.45;;;2.83;;
4636;SDS011;2331;48.806;9.140;2023-07-22T00:32:02;4.13;;;2.60;;
4636;SDS011;2331;48.806;9.140;2023-07-22T00:34:32;3.78;;;2.55;;
4636;SDS011;2331;48.806;9.140;2023-07-22T00:36:58;4.82;;;2.20;;
4636;SDS011;2331;48.806;9.140;2023-07-22T00:39:25;2.50;;;1.70;;
4636;SDS011;2331;48.806;9.140;2023-07-22T00:41:52;2.72;;;2.13;;
4636;SDS011;2331;48.806;9.140;2023-07-22T00:44:18;2.88;;;2.15;;
4636;SDS011;2331;48.806;9.140;2023-07-22T00:46:50;2.45;;;1.92;;
4636;SDS011;2331;48.806;9.140;2023-07-22T00:49:20;3.13;;;1.90;;
4636;SDS011;2331;48.806;9.140;2023-07-22T00:51:47;4.00;;;2.00;;
4636;SDS011;2331;48.806;9.140;2023-07-22T00:54:14;2.63;;;1.85;;
4636;SDS011;2331;48.806;9.140;2023-07-22T00:56:41;2.85;;;1.98;;
4636;SDS011;2331;48.806;9.140;2023-07-22T00:59:09;3.80;;;1.70;;
4636;SDS011;2331;48.806;9.140;2023-07-22T01:01:36;3.20;;;2.03;;
4636;SDS011;2331;48.806;9.140;2023-07-22T01:04:05;2.65;;;1.77;;
4636;SDS011;2331;48.806;9.140;2023-07-22T01:06:33;4.80;;;2.30;;
4636;SDS011;2331;48.806;9.140;2023-07-22T01:09:01;3.78;;;2.20;;
4636;SDS011;2331;48.806;9.140;2023-07-22T01:11:28;3.58;;;1.80;;
4636;SDS011;2331;48.806;9.140;2023-07-22T01:13:55;4.57;;;1.77;;
4636;SDS011;2331;48.806;9.140;2023-07-22T01:16:24;2.90;;;2.20;;
4636;SDS011;2331;48.806;9.140;2023-07-22T01:18:52;2.30;;;1.40;;
4636;SDS011;2331;48.806;9.140;2023-07-22T01:21:21;2.83;;;1.80;;
4636;SDS011;2331;48.806;9.140;2023-07-22T01:23:51;4.40;;;2.17;;
4636;SDS011;2331;48.806;9.140;2023-07-22T01:26:18;5.55;;;1.98;;
4636;SDS011;2331;48.806;9.140;2023-07-22T01:28:45;5.50;;;2.20;;
4636;SDS011;2331;48.806;9.140;2023-07-22T01:31:11;6.72;;;2.20;;
4636;SDS011;2331;48.806;9.140;2023-07-22T01:33:38;4.15;;;2.03;;
4636;SDS011;2331;48.806;9.140;2023-07-22T01:36:05;2.65;;;2.00;;
4636;SDS011;2331;48.806;9.140;2023-07-22T01:38:32;6.00;;;1.95;;
4636;SDS011;2331;48.806;9.140;2023-07-22T01:41:00;4.90;;;2.10;;
4636;SDS011;2331;48.806;9.140;2023-07-22T01:43:27;3.22;;;1.90;;
4636;SDS011;2331;48.806;9.140;2023-07-22T01:45:54;2.55;;;1.90;;
4636;SDS011;2331;48.806;9.140;2023-07-22T01:48:21;3.42;;;1.92;;
4636;SDS011;2331;48.806;9.140;2023-07-22T01:50:48;3.92;;;1.85;;
4636;SDS011;2331;48.806;9.140;2023-07-22T01:53:15;2.50;;;2.00;;
4636;SDS011;2331;48.806;9.140;2023-07-22T01:55:42;4.68;;;2.00;;
4636;SDS011;2331;48.806;9.140;2023-07-22T01:58:10;2.60;;;1.75;;
4636;SDS011;2331;48.806;9.140;2023-07-22T02:00:37;3.42;;;2.13;;
4636;SDS011;2331;48.806;9.140;2023-07-22T02:03:03;3.45;;;2.08;;
4636;SDS011;2331;48.806;9.140;2023-07-22T02:05:30;2.67;;;1.73;;
4636;SDS011;2331;48.806;9.140;2023-07-22T02:07:57;4.13;;;2.15;;
4636;SDS011;2331;48.806;9.140;2023-07-22T02:10:24;3.55;;;2.00;;
4636;SDS011;2331;48.806;9.140;2023-07-22T02:12:50;3.50;;;2.20;;
4636;SDS011;2331;48.806;9.140;2023-07-22T02:15:18;2.78;;;2.10;;
4636;SDS011;2331;48.806;9.140;2023-07-22T02:17:47;3.00;;;2.20;;
4636;SDS011;2331;48.806;9.140;2023-07-22T02:20:14;3.75;;;2.10;;
4636;SDS011;2331;48.806;9.140;2023-07-22T02:22:40;3.38;;;2.10;;
4636;SDS011;2331;48.806;9.140;2023-07-22T02:25:07;4.32;;;2.00;;
4636;SDS011;2331;48.806;9.140;2023-07-22T02:27:36;3.97;;;2.20;;
4636;SDS011;2331;48.806;9.140;2023-07-22T02:30:04;6.03;;;1.63;;
4636;SDS011;2331;48.806;9.140;2023-07-22T02:32:36;6.68;;;1.95;;
4636;SDS011;2331;48.806;9.140;2023-07-22T02:35:04;8.38;;;2.13;;
4636;SDS011;2331;48.806;9.140;2023-07-22T02:37:31;3.17;;;2.03;;
4636;SDS011;2331;48.806;9.140;2023-07-22T02:39:58;2.22;;;1.60;;
4636;SDS011;2331;48.806;9.140;2023-07-22T02:42:25;3.38;;;2.10;;
4636;SDS011;2331;48.806;9.140;2023-07-22T02:44:52;3.10;;;2.25;;
4636;SDS011;2331;48.806;9.140;2023-07-22T02:47:19;3.33;;;2.38;;
4636;SDS011;2331;48.806;9.140;2023-07-22T02:49:47;3.35;;;1.77;;
4636;SDS011;2331;48.806;9.140;2023-07-22T02:52:13;2.15;;;1.70;;
4636;SDS011;2331;48.806;9.140;2023-07-22T02:54:40;3.30;;;1.80;;
4636;SDS011;2331;48.806;9.140;2023-07-22T02:57:07;2.65;;;1.73;;
4636;SDS011;2331;48.806;9.140;2023-07-22T02:59:34;3.13;;;2.17;;
4636;SDS011;2331;48.806;9.140;2023-07-22T03:02:02;2.47;;;1.85;;
4636;SDS011;2331;48.806;9.140;2023-07-22T03:04:29;2.95;;;2.03;;
4636;SDS011;2331;48.806;9.140;2023-07-22T03:06:57;2.50;;;1.88;;
4636;SDS011;2331;48.806;9.140;2023-07-22T03:09:24;4.80;;;2.30;;
4636;SDS011;2331;48.806;9.140;2023-07-22T03:11:50;4.95;;;2.55;;
4636;SDS011;2331;48.806;9.140;2023-07-22T03:14:17;3.13;;;2.03;;
4636;SDS011;2331;48.806;9.140;2023-07-22T03:16:45;4.78;;;2.30;;
4636;SDS011;2331;48.806;9.140;2023-07-22T03:19:12;4.53;;;2.08;;
4636;SDS011;2331;48.806;9.140;2023-07-22T03:21:39;3.25;;;2.05;;
4636;SDS011;2331;48.806;9.140;2023-07-22T03:24:07;2.80;;;2.08;;
4636;SDS011;2331;48.806;9.140;2023-07-22T03:26:34;3.85;;;2.45;;
4636;SDS011;2331;48.806;9.140;2023-07-22T03:29:01;2.95;;;2.20;;
4636;SDS011;2331;48.806;9.140;2023-07-22T03:31:29;4.22;;;2.15;;
4636;SDS011;2331;48.806;9.140;2023-07-22T03:33:56;3.70;;;1.90;;
4636;SDS011;2331;48.806;9.140;2023-07-22T03:36:23;4.55;;;2.40;;
4636;SDS011;2331;48.806;9.140;2023-07-22T03:38:50;2.78;;;2.10;;
4636;SDS011;2331;48.806;9.140;2023-07-22T03:41:18;3.63;;;2.08;;
4636;SDS011;2331;48.806;9.140;2023-07-22T03:43:45;4.90;;;2.75;;
4636;SDS011;2331;48.806;9.140;2023-07-22T03:46:11;3.03;;;2.00;;
4636;SDS011;2331;48.806;9.140;2023-07-22T03:48:39;4.22;;;2.17;;
4636;SDS011;2331;48.806;9.140;2023-07-22T03:51:05;4.80;;;2.22;;
4636;SDS011;2331;48.806;9.140;2023-07-22T03:53:32;3.95;;;2.55;;
4636;SDS011;2331;48.806;9.140;2023-07-22T03:55:59;3.67;;;2.05;;
4636;SDS011;2331;48.806;9.140;2023-07-22T03:58:27;3.40;;;2.00;;
4636;SDS011;2331;48.806;9.140;2023-07-22T04:00:53;3.10;;;2.00;;
4636;SDS011;2331;48.806;9.140;2023-07-22T04:03:20;3.47;;;2.40;;
4636;SDS011;2331;48.806;9.140;2023-07-22T04:05:53;3.78;;;2.30;;
4636;SDS011;2331;48.806;9.140;2023-07-22T04:08:20;3.80;;;2.10;;
4636;SDS011;2331;48.806;9.140;2023-07-22T04:10:50;3.05;;;1.88;;
4636;SDS011;2331;48.806;9.140;2023-07-22T04:13:18;3.50;;;1.98;;
4636;SDS011;2331;48.806;9.140;2023-07-22T04:15:46;4.57;;;2.40;;
4636;SDS011;2331;48.806;9.140;2023-07-22T04:18:12;3.33;;;1.92;;
4636;SDS011;2331;48.806;9.140;2023-07-22T04:20:40;3.45;;;2.20;;
4636;SDS011;2331;48.806;9.140;2023-07-22T04:23:07;3.83;;;2.30;;
4636;SDS011;2331;48.806;9.140;2023-07-22T04:25:38;2.55;;;1.90;;
4636;SDS011;2331;48.806;9.140;2023-07-22T04:28:05;4.07;;;1.90;;
4636;SDS011;2331;48.806;9.140;2023-07-22T04:30:33;3.15;;;1.80;;
4636;SDS011;2331;48.806;9.140;2023-07-22T04:33:01;3.13;;;2.33;;
4636;SDS011;2331;48.806;9.140;2023-07-22T04:35:30;8.27;;;2.60;;
4636;SDS011;2331;48.806;9.140;2023-07-22T04:37:57;2.50;;;2.00;;
4636;SDS011;2331;48.806;9.140;2023-07-22T04:40:24;3.28;;;2.20;;
4636;SDS011;2331;48.806;9.140;2023-07-22T04:42:51;4.20;;;2.50;;
4636;SDS011;2331;48.806;9.140;2023-07-22T04:45:18;2.70;;;1.98;;
4636;SDS011;2331;48.806;9.140;2023-07-22T04:47:45;5.88;;;2.15;;
4636;SDS011;2331;48.806;9.140;2023-07-22T04:50:13;3.78;;;2.35;;
4636;SDS011;2331;48.806;9.140;2023-07-22T04:52:41;3.90;;;2.42;;
4636;SDS011;2331;48.806;9.140;2023-07-22T04:55:09;3.65;;;2.15;;
4636;SDS011;2331;48.806;9.140;2023-07-22T04:57:37;3.78;;;2.42;;
4636;SDS011;2331;48.806;9.140;2023-07-22T05:00:06;2.53;;;2.03;;
4636;SDS011;2331;48.806;9.140;2023-07-22T05:02:34;3.55;;;2.30;;
4636;SDS011;2331;48.806;9.140;2023-07-22T05:05:01;5.78;;;2.70;;
4636;SDS011;2331;48.806;9.140;2023-07-22T05:07:30;4.15;;;2.40;;
4636;SDS011;2331;48.806;9.140;2023-07-22T05:09:56;4.38;;;2.80;;
4636;SDS011;2331;48.806;9.140;2023-07-22T05:12:23;2.95;;;2.10;;
4636;SDS011;2331;48.806;9.140;2023-07-22T05:14:50;6.38;;;2.53;;
4636;SDS011;2331;48.806;9.140;2023-07-22T05:17:16;3.22;;;2.30;;
4636;SDS011;2331;48.806;9.140;2023-07-22T05:19:43;3.80;;;2.10;;
4636;SDS011;2331;48.806;9.140;2023-07-22T05:22:10;4.35;;;3.15;;
4636;SDS011;2331;48.806;9.140;2023-07-22T05:24:38;3.10;;;2.30;;
4636;SDS011;2331;48.806;9.140;2023-07-22T05:27:05;3.20;;;2.35;;
4636;SDS011;2331;48.806;9.140;2023-07-22T05:29:32;4.25;;;2.40;;
4636;SDS011;2331;48.806;9.140;2023-07-22T05:31:58;2.70;;;2.17;;
4636;SDS011;2331;48.806;9.140;2023-07-22T05:34:25;3.92;;;2.60;;
4636;SDS011;2331;48.806;9.140;2023-07-22T05:36:52;5.07;;;2.30;;
4636;SDS011;2331;48.806;9.140;2023-07-22T05:39:19;3.00;;;2.30;;
4636;SDS011;2331;48.806;9.140;2023-07-22T05:41:46;5.75;;;2.60;;
4636;SDS011;2331;48.806;9.140;2023-07-22T05:44:13;3.38;;;2.35;;
4636;SDS011;2331;48.806;9.140;2023-07-22T05:46:40;3.13;;;1.80;;
4636;SDS011;2331;48.806;9.140;2023-07-22T05:49:07;3.22;;;2.15;;
4636;SDS011;2331;48.806;9.140;2023-07-22T05:51:35;3.97;;;2.63;;
4636;SDS011;2331;48.806;9.140;2023-07-22T05:54:02;4.97;;;2.75;;
4636;SDS011;2331;48.806;9.140;2023-07-22T05:56:29;3.33;;;2.10;;
4636;SDS011;2331;48.806;9.140;2023-07-22T05:58:57;4.38;;;2.40;;
4636;SDS011;2331;48.806;9.140;2023-07-22T06:01:24;4.28;;;2.42;;
4636;SDS011;2331;48.806;9.140;2023-07-22T06:03:51;4.47;;;2.60;;
4636;SDS011;2331;48.806;9.140;2023-07-22T06:06:18;3.28;;;2.35;;
4636;SDS011;2331;48.806;9.140;2023-07-22T06:08:45;4.85;;;2.75;;
4636;SDS011;2331;48.806;9.140;2023-07-22T06:11:11;6.10;;;3.15;;
4636;SDS011;2331;48.806;9.140;2023-07-22T06:13:38;4.90;;;2.33;;
4636;SDS011;2331;48.806;9.140;2023-07-22T06:16:06;4.50;;;2.78;;
4636;SDS011;2331;48.806;9.140;2023-07-22T06:18:33;4.47;;;2.70;;
4636;SDS011;2331;48.806;9.140;2023-07-22T06:20:59;4.60;;;3.03;;
4636;SDS011;2331;48.806;9.140;2023-07-22T06:23:26;5.68;;;2.50;;
4636;SDS011;2331;48.806;9.140;2023-07-22T06:25:53;7.35;;;3.65;;
4636;SDS011;2331;48.806;9.140;2023-07-22T06:28:20;4.78;;;2.60;;
4636;SDS011;2331;48.806;9.140;2023-07-22T06:30:46;3.80;;;2.50;;
4636;SDS011;2331;48.806;9.140;2023-07-22T06:33:14;3.83;;;2.60;;
4636;SDS011;2331;48.806;9.140;2023-07-22T06:35:41;6.47;;;3.67;;
4636;SDS011;2331;48.806;9.140;2023-07-22T06:38:08;3.90;;;2.53;;
4636;SDS011;2331;48.806;9.140;2023-07-22T06:40:35;3.67;;;2.75;;
4636;SDS011;2331;48.806;9.140;2023-07-22T06:43:01;5.10;;;2.55;;
4636;SDS011;2331;48.806;9.140;2023-07-22T06:45:28;5.13;;;2.88;;
4636;SDS011;2331;48.806;9.140;2023-07-22T06:47:55;5.50;;;3.40;;
4636;SDS011;2331;48.806;9.140;2023-07-22T06:50:23;3.95;;;2.50;;
4636;SDS011;2331;48.806;9.140;2023-07-22T06:52:49;4.72;;;2.53;;
4636;SDS011;2331;48.806;9.140;2023-07-22T06:55:16;4.68;;;2.70;;
4636;SDS011;2331;48.806;9.140;2023-07-22T06:57:43;6.07;;;3.05;;
4636;SDS011;2331;48.806;9.140;2023-07-22T07:00:10;5.97;;;3.10;;
4636;SDS011;2331;48.806;9.140;2023-07-22T07:02:37;11.30;;;3.08;;
4636;SDS011;2331;48.806;9.140;2023-07-22T07:05:04;4.65;;;2.83;;
4636;SDS011;2331;48.806;9.140;2023-07-22T07:07:33;6.80;;;2.58;;
4636;SDS011;2331;48.806;9.140;2023-07-22T07:09:59;6.00;;;2.97;;
4636;SDS011;2331;48.806;9.140;2023-07-22T07:12:26;6.75;;;2.83;;
4636;SDS011;2331;48.806;9.140;2023-07-22T07:14:53;5.78;;;2.53;;
4636;SDS011;2331;48.806;9.140;2023-07-22T07:17:20;6.18;;;2.67;;
4636;SDS011;2331;48.806;9.140;2023-07-22T07:19:46;4.40;;;3.40;;
4636;SDS011;2331;48.806;9.140;2023-07-22T07:22:13;6.70;;;3.28;;
4636;SDS011;2331;48.806;9.140;2023-07-22T07:24:41;4.32;;;2.90;;
4636;SDS011;2331;48.806;9.140;2023-07-22T07:27:08;4.53;;;2.80;;
4636;SDS011;2331;48.806;9.140;2023-07-22T07:29:34;5.28;;;2.70;;
4636;SDS011;2331;48.806;9.140;2023-07-22T07:32:01;6.38;;;3.10;;
4636;SDS011;2331;48.806;9.140;2023-07-22T07:34:28;6.80;;;3.25;;
4636;SDS011;2331;48.806;9.140;2023-07-22T07:36:55;5.35;;;2.50;;
4636;SDS011;2331;48.806;9.140;2023-07-22T07:39:21;7.45;;;3.00;;
4636;SDS011;2331;48.806;9.140;2023-07-22T07:41:50;3.75;;;2.58;;
4636;SDS011;2331;48.806;9.140;2023-07-22T07:44:16;4.55;;;2.50;;
4636;SDS011;2331;48.806;9.140;2023-07-22T07:46:43;6.35;;;3.22;;
4636;SDS011;2331;48.806;9.140;2023-07-22T07:49:10;5.13;;;3.00;;
4636;SDS011;2331;48.806;9.140;2023-07-22T07:51:37;3.67;;;2.67;;
4636;SDS011;2331;48.806;9.140;2023-07-22T07:54:03;5.37;;;2.67;;
4636;SDS011;2331;48.806;9.140;2023-07-22T07:56:32;6.17;;;2.53;;
4636;SDS011;2331;48.806;9.140;2023-07-22T07:59:00;3.90;;;2.30;;
4636;SDS011;2331;48.806;9.140;2023-07-22T08:01:27;4.87;;;2.60;;
4636;SDS011;2331;48.806;9.140;2023-07-22T08:03:54;4.40;;;2.40;;
4636;SDS011;2331;48.806;9.140;2023-07-22T08:06:21;4.70;;;2.57;;
4636;SDS011;2331;48.806;9.140;2023-07-22T08:08:47;4.43;;;2.63;;
4636;SDS011;2331;48.806;9.140;2023-07-22T08:11:14;6.93;;;3.80;;
4636;SDS011;2331;48.806;9.140;2023-07-22T08:13:41;4.07;;;2.87;;
4636;SDS011;2331;48.806;9.140;2023-07-22T08:16:11;8.40;;;2.83;;
4636;SDS011;2331;48.806;9.140;2023-07-22T08:18:38;5.10;;;2.70;;
4636;SDS011;2331;48.806;9.140;2023-07-22T08:21:06;3.67;;;2.20;;
4636;SDS011;2331;48.806;9.140;2023-07-22T08:23:33;4.50;;;2.27;;
4636;SDS011;2331;48.806;9.140;2023-07-22T08:26:00;16.73;;;2.60;;
4636;SDS011;2331;48.806;9.140;2023-07-22T08:28:26;3.13;;;1.90;;
4636;SDS011;2331;48.806;9.140;2023-07-22T08:30:54;5.20;;;2.27;;
4636;SDS011;2331;48.806;9.140;2023-07-22T08:33:23;2.30;;;1.60;;
4636;SDS011;2331;48.806;9.140;2023-07-22T08:35:50;3.37;;;1.93;;
4636;SDS011;2331;48.806;9.140;2023-07-22T08:38:17;2.70;;;1.53;;
4636;SDS011;2331;48.806;9.140;2023-07-22T08:40:44;4.30;;;1.90;;
4636;SDS011;2331;48.806;9.140;2023-07-22T08:43:14;3.70;;;1.77;;
4636;SDS011;2331;48.806;9.140;2023-07-22T08:45:41;3.63;;;1.97;;
4636;SDS011;2331;48.806;9.140;2023-07-22T08:48:09;3.50;;;2.20;;
4636;SDS011;2331;48.806;9.140;2023-07-22T08:50:41;4.10;;;2.33;;
4636;SDS011;2331;48.806;9.140;2023-07-22T08:53:10;3.67;;;2.17;;
4636;SDS011;2331;48.806;9.140;2023-07-22T08:55:38;3.47;;;2.00;;
4636;SDS011;2331;48.806;9.140;2023-07-22T08:58:05;3.83;;;2.00;;
4636;SDS011;2331;48.806;9.140;2023-07-22T09:00:34;11.03;;;2.20;;
4636;SDS011;2331;48.806;9.140;2023-07-22T09:03:01;3.73;;;1.70;;
4636;SDS011;2331;48.806;9.140;2023-07-22T09:05:28;3.33;;;1.60;;
4636;SDS011;2331;48.806;9.140;2023-07-22T09:07:56;2.50;;;1.50;;
4636;SDS011;2331;48.806;9.140;2023-07-22T09:10:24;3.90;;;1.90;;
4636;SDS011;2331;48.806;9.140;2023-07-22T09:12:53;3.10;;;1.50;;
4636;SDS011;2331;48.806;9.140;2023-07-22T09:15:20;5.60;;;2.10;;
4636;SDS011;2331;48.806;9.140;2023-07-22T09:17:48;3.70;;;1.90;;
4636;SDS011;2331;48.806;9.140;2023-07-22T09:20:15;6.70;;;3.10;;
4636;SDS011;2331;48.806;9.140;2023-07-22T09:22:43;4.13;;;1.93;;
4636;SDS011;2331;48.806;9.140;2023-07-22T09:25:16;3.23;;;2.00;;
4636;SDS011;2331;48.806;9.140;2023-07-22T09:27:44;5.23;;;2.20;;
4636;SDS011;2331;48.806;9.140;2023-07-22T09:30:21;4.00;;;2.10;;
4636;SDS011;2331;48.806;9.140;2023-07-22T09:32:50;3.70;;;1.97;;
4636;SDS011;2331;48.806;9.140;2023-07-22T09:35:17;3.20;;;1.83;;
4636;SDS011;2331;48.806;9.140;2023-07-22T09:37:44;2.93;;;1.90;;
4636;SDS011;2331;48.806;9.140;2023-07-22T09:40:13;3.93;;;2.17;;
4636;SDS011;2331;48.806;9.140;2023-07-22T09:42:46;3.20;;;2.03;;
4636;SDS011;2331;48.806;9.140;2023-07-22T09:45:13;3.03;;;1.63;;
4636;SDS011;2331;48.806;9.140;2023-07-22T09:47:41;5.43;;;2.00;;
4636;SDS011;2331;48.806;9.140;2023-07-22T09:50:10;4.37;;;2.03;;
4636;SDS011;2331;48.806;9.140;2023-07-22T09:52:42;2.83;;;1.63;;
4636;SDS011;2331;48.806;9.140;2023-07-22T09:55:14;3.20;;;1.60;;
4636;SDS011;2331;48.806;9.140;2023-07-22T09:57:44;3.47;;;1.53;;
4636;SDS011;2331;48.806;9.140;2023-07-22T10:00:13;3.00;;;1.57;;
4636;SDS011;2331;48.806;9.140;2023-07-22T10:02:41;4.27;;;1.70;;
4636;SDS011;2331;48.806;9.140;2023-07-22T10:05:11;5.20;;;1.80;;
4636;SDS011;2331;48.806;9.140;2023-07-22T10:07:40;6.70;;;1.53;;
4636;SDS011;2331;48.806;9.140;2023-07-22T10:10:09;3.33;;;1.60;;
4636;SDS011;2331;48.806;9.140;2023-07-22T10:12:38;4.30;;;1.70;;
4636;SDS011;2331;48.806;9.140;2023-07-22T10:15:06;3.67;;;1.70;;
4636;SDS011;2331;48.806;9.140;2023-07-22T10:17:34;3.00;;;1.53;;
4636;SDS011;2331;48.806;9.140;2023-07-22T10:20:01;3.20;;;1.73;;
4636;SDS011;2331;48.806;9.140;2023-07-22T10:22:30;3.40;;;1.77;;
4636;SDS011;2331;48.806;9.140;2023-07-22T10:24:58;3.60;;;1.93;;
4636;SDS011;2331;48.806;9.140;2023-07-22T10:27:26;2.80;;;1.30;;
4636;SDS011;2331;48.806;9.140;2023-07-22T10:29:55;4.20;;;1.90;;
4636;SDS011;2331;48.806;9.140;2023-07-22T10:32:22;3.57;;;1.87;;
4636;SDS011;2331;48.806;9.140;2023-07-22T10:34:49;3.27;;;1.67;;
4636;SDS011;2331;48.806;9.140;2023-07-22T10:37:17;3.23;;;1.77;;
4636;SDS011;2331;48.806;9.140;2023-07-22T10:39:44;3.23;;;1.77;;
4636;SDS011;2331;48.806;9.140;2023-07-22T10:42:16;2.60;;;1.50;;
4636;SDS011;2331;48.806;9.140;2023-07-22T10:44:50;6.00;;;3.60;;
4636;SDS011;2331;48.806;9.140;2023-07-22T10:47:31;4.40;;;2.30;;
4636;SDS011;2331;48.806;9.140;2023-07-22T10:50:05;5.20;;;1.77;;
4636;SDS011;2331;48.806;9.140;2023-07-22T10:52:39;5.07;;;1.70;;
4636;SDS011;2331;48.806;9.140;2023-07-22T10:55:14;3.00;;;1.60;;
4636;SDS011;2331;48.806;9.140;2023-07-22T10:57:49;3.37;;;1.67;;
4636;SDS011;2331;48.806;9.140;2023-07-22T11:00:18;4.97;;;2.00;;
4636;SDS011;2331;48.806;9.140;2023-07-22T11:02:47;3.20;;;1.83;;
4636;SDS011;2331;48.806;9.140;2023-07-22T11:08:37;3.60;;;1.53;;
4636;SDS011;2331;48.806;9.140;2023-07-22T11:11:06;3.67;;;1.70;;
4636;SDS011;2331;48.806;9.140;2023-07-22T11:13:35;4.03;;;1.77;;
4636;SDS011;2331;48.806;9.140;2023-07-22T11:16:09;4.63;;;2.00;;
4636;SDS011;2331;48.806;9.140;2023-07-22T11:18:38;4.53;;;1.97;;
4636;SDS011;2331;48.806;9.140;2023-07-22T11:21:09;4.10;;;1.83;;
4636;SDS011;2331;48.806;9.140;2023-07-22T11:23:36;4.37;;;2.00;;
4636;SDS011;2331;48.806;9.140;2023-07-22T11:26:03;3.53;;;1.80;;
4636;SDS011;2331;48.806;9.140;2023-07-22T11:28:30;4.30;;;1.73;;
4636;SDS011;2331;48.806;9.140;2023-07-22T11:30:57;3.07;;;1.50;;
4636;SDS011;2331;48.806;9.140;2023-07-22T11:33:25;4.93;;;1.80;;
4636;SDS011;2331;48.806;9.140;2023-07-22T11:36:04;3.97;;;2.10;;
4636;SDS011;2331;48.806;9.140;2023-07-22T11:38:32;4.17;;;1.80;;
4636;SDS011;2331;48.806;9.140;2023-07-22T11:40:59;4.50;;;1.73;;
4636;SDS011;2331;48.806;9.140;2023-07-22T11:43:26;3.10;;;1.60;;
4636;SDS011;2331;48.806;9.140;2023-07-22T11:45:53;3.53;;;2.07;;
4636;SDS011;2331;48.806;9.140;2023-07-22T11:48:20;6.63;;;1.80;;
4636;SDS011;2331;48.806;9.140;2023-07-22T11:50:47;2.67;;;1.50;;
4636;SDS011;2331;48.806;9.140;2023-07-22T11:53:15;3.90;;;2.10;;
4636;SDS011;2331;48.806;9.140;2023-07-22T11:55:42;7.13;;;1.80;;
4636;SDS011;2331;48.806;9.140;2023-07-22T11:58:10;4.70;;;1.77;;
4636;SDS011;2331;48.806;9.140;2023-07-22T12:00:37;3.57;;;1.90;;
4636;SDS011;2331;48.806;9.140;2023-07-22T12:03:06;2.93;;;1.60;;
4636;SDS011;2331;48.806;9.140;2023-07-22T12:05:34;3.33;;;1.60;;
4636;SDS011;2331;48.806;9.140;2023-07-22T12:08:03;5.33;;;1.97;;
4636;SDS011;2331;48.806;9.140;2023-07-22T12:10:32;4.33;;;2.10;;
4636;SDS011;2331;48.806;9.140;2023-07-22T12:13:00;4.53;;;2.00;;
4636;SDS011;2331;48.806;9.140;2023-07-22T12:15:27;3.00;;;1.77;;
4636;SDS011;2331;48.806;9.140;2023-07-22T12:17:54;3.13;;;1.73;;
4636;SDS011;2331;48.806;9.140;2023-07-22T12:20:23;3.23;;;1.90;;
4636;SDS011;2331;48.806;9.140;2023-07-22T12:22:50;3.57;;;1.83;;
4636;SDS011;2331;48.806;9.140;2023-07-22T12:25:17;2.67;;;1.43;;
4636;SDS011;2331;48.806;9.140;2023-07-22T12:27:45;3.57;;;1.93;;
4636;SDS011;2331;48.806;9.140;2023-07-22T12:30:12;4.57;;;2.00;;
4636;SDS011;2331;48.806;9.140;2023-07-22T12:32:40;3.87;;;2.20;;
4636;SDS011;2331;48.806;9.140;2023-07-22T12:35:07;3.63;;;1.80;;
4636;SDS011;2331;48.806;9.140;2023-07-22T12:37:34;3.67;;;1.83;;
4636;SDS011;2331;48.806;9.140;2023-07-22T12:40:02;3.70;;;1.60;;
4636;SDS011;2331;48.806;9.140;2023-07-22T12:42:31;3.67;;;2.07;;
4636;SDS011;2331;48.806;9.140;2023-07-22T12:44:59;4.00;;;2.00;;
4636;SDS011;2331;48.806;9.140;2023-07-22T12:47:25;3.73;;;1.97;;
4636;SDS011;2331;48.806;9.140;2023-07-22T12:49:52;4.00;;;2.00;;
4636;SDS011;2331;48.806;9.140;2023-07-22T12:52:19;5.10;;;1.80;;
4636;SDS011;2331;48.806;9.140;2023-07-22T12:54:45;4.00;;;2.27;;
4636;SDS011;2331;48.806;9.140;2023-07-22T12:57:12;3.90;;;2.00;;
4636;SDS011;2331;48.806;9.140;2023-07-22T12:59:39;3.73;;;2.17;;
4636;SDS011;2331;48.806;9.140;2023-07-22T13:02:07;8.10;;;2.63;;
4636;SDS011;2331;48.806;9.140;2023-07-22T13:04:34;4.17;;;2.20;;
4636;SDS011;2331;48.806;9.140;2023-07-22T13:07:01;4.10;;;2.40;;
4636;SDS011;2331;48.806;9.140;2023-07-22T13:09:28;4.07;;;2.10;;
4636;SDS011;2331;48.806;9.140;2023-07-22T13:11:55;3.67;;;2.00;;
4636;SDS011;2331;48.806;9.140;2023-07-22T13:14:21;5.40;;;2.20;;
4636;SDS011;2331;48.806;9.140;2023-07-22T13:16:48;4.67;;;2.40;;
4636;SDS011;2331;48.806;9.140;2023-07-22T13:19:16;3.80;;;2.07;;
4636;SDS011;2331;48.806;9.140;2023-07-22T13:21:43;3.50;;;2.20;;
4636;SDS011;2331;48.806;9.140;2023-07-22T13:24:10;2.93;;;1.90;;
4636;SDS011;2331;48.806;9.140;2023-07-22T13:26:36;4.13;;;2.20;;
4636;SDS011;2331;48.806;9.140;2023-07-22T13:29:03;5.57;;;2.47;;
4636;SDS011;2331;48.806;9.140;2023-07-22T13:31:30;4.23;;;2.50;;
4636;SDS011;2331;48.806;9.140;2023-07-22T13:33:56;3.83;;;2.20;;
4636;SDS011;2331;48.806;9.140;2023-07-22T13:36:24;4.87;;;2.53;;
4636;SDS011;2331;48.806;9.140;2023-07-22T13:38:51;4.87;;;2.30;;
4636;SDS011;2331;48.806;9.140;2023-07-22T13:41:18;3.87;;;2.20;;
4636;SDS011;2331;48.806;9.140;2023-07-22T13:43:45;4.27;;;2.63;;
4636;SDS011;2331;48.806;9.140;2023-07-22T13:46:12;4.30;;;2.53;;
4636;SDS011;2331;48.806;9.140;2023-07-22T13:48:38;6.10;;;2.60;;
4636;SDS011;2331;48.806;9.140;2023-07-22T13:51:05;4.00;;;2.40;;
4636;SDS011;2331;48.806;9.140;2023-07-22T13:53:33;4.90;;;2.60;;
4636;SDS011;2331;48.806;9.140;2023-07-22T13:56:00;5.10;;;2.50;;
4636;SDS011;2331;48.806;9.140;2023-07-22T13:58:26;3.60;;;1.93;;
4636;SDS011;2331;48.806;9.140;2023-07-22T14:00:53;5.00;;;2.70;;
4636;SDS011;2331;48.806;9.140;2023-07-22T14:03:20;5.63;;;2.70;;
4636;SDS011;2331;48.806;9.140;2023-07-22T14:05:47;4.77;;;2.60;;
4636;SDS011;2331;48.806;9.140;2023-07-22T14:08:13;4.87;;;2.77;;
4636;SDS011;2331;48.806;9.140;2023-07-22T14:10:41;4.60;;;2.60;;
4636;SDS011;2331;48.806;9.140;2023-07-22T14:13:08;4.17;;;2.20;;
4636;SDS011;2331;48.806;9.140;2023-07-22T14:15:35;4.10;;;2.37;;
4636;SDS011;2331;48.806;9.140;2023-07-22T14:18:02;5.73;;;2.40;;
4636;SDS011;2331;48.806;9.140;2023-07-22T14:20:29;5.03;;;2.77;;
4636;SDS011;2331;48.806;9.140;2023-07-22T14:22:56;5.67;;;2.60;;
4636;SDS011;2331;48.806;9.140;2023-07-22T14:25:23;5.10;;;2.50;;
4636;SDS011;2331;48.806;9.140;2023-07-22T14:27:51;4.07;;;2.10;;
4636;SDS011;2331;48.806;9.140;2023-07-22T14:30:17;4.37;;;2.47;;
4636;SDS011;2331;48.806;9.140;2023-07-22T14:32:44;4.20;;;2.20;;
4636;SDS011;2331;48.806;9.140;2023-07-22T14:35:11;4.03;;;2.40;;
4636;SDS011;2331;48.806;9.140;2023-07-22T14:37:37;5.50;;;2.40;;
4636;SDS011;2331;48.806;9.140;2023-07-22T14:40:05;4.37;;;2.30;;
4636;SDS011;2331;48.806;9.140;2023-07-22T14:42:33;5.87;;;2.97;;
4636;SDS011;2331;48.806;9.140;2023-07-22T14:45:02;4.27;;;2.53;;
4636;SDS011;2331;48.806;9.140;2023-07-22T14:47:29;14.43;;;2.57;;
4636;SDS011;2331;48.806;9.140;2023-07-22T14:49:56;8.53;;;2.87;;
4636;SDS011;2331;48.806;9.140;2023-07-22T14:52:23;4.97;;;2.93;;
4636;SDS011;2331;48.806;9.140;2023-07-22T14:54:50;4.37;;;2.60;;
4636;SDS011;2331;48.806;9.140;2023-07-22T14:57:16;4.90;;;2.67;;
4636;SDS011;2331;48.806;9.140;2023-07-22T14:59:43;5.03;;;2.50;;
4636;SDS011;2331;48.806;9.140;2023-07-22T15:02:13;6.60;;;3.50;;
4636;SDS011;2331;48.806;9.140;2023-07-22T15:04:39;3.40;;;2.07;;
4636;SDS011;2331;48.806;9.140;2023-07-22T15:07:06;4.20;;;2.90;;
4636;SDS011;2331;48.806;9.140;2023-07-22T15:09:33;4.80;;;2.73;;
4636;SDS011;2331;48.806;9.140;2023-07-22T15:11:59;4.40;;;2.70;;
4636;SDS011;2331;48.806;9.140;2023-07-22T15:14:26;5.43;;;2.80;;
4636;SDS011;2331;48.806;9.140;2023-07-22T15:16:53;6.37;;;2.60;;
4636;SDS011;2331;48.806;9.140;2023-07-22T15:19:21;5.80;;;2.83;;